Terminal Aerodrome Forecast
Issued by NWS

Home | Current Version | Previous Version | Text Only | Print | Product List | Glossary On
Versions: 1 2 3 4 5 6 7 8 9 10 11 12 13 14 15 16 17 18 19
314
FTAK31 PAJN 232335
TAFAJN
TAF
PAJN 232335Z 2400/2424 24012KT P6SM FEW040 BKN070 OVC200
     FM240300 24006KT P6SM VCSH BKN045 BKN080
     FM240500 13006KT P6SM -SHRA SCT025 OVC040
     FM241800 11013KT P6SM VCSH OVC040=

USA.gov is the U.S. government's official web portal to all federal, state and local government web resources and services.